createdAt,value
2019-04-10T00:00:28.893Z,29.73
2019-04-10T00:05:23.613Z,29.00
2019-04-10T00:10:19.371Z,29.07
2019-04-10T00:15:16.104Z,30.63
2019-04-10T00:20:11.945Z,30.17
2019-04-10T00:25:08.484Z,29.97
2019-04-10T00:30:03.282Z,29.53
2019-04-10T00:34:58.216Z,30.67
2019-04-10T00:39:53.090Z,28.33
2019-04-10T00:44:48.025Z,29.20
2019-04-10T00:49:44.000Z,28.87
2019-04-10T00:54:39.249Z,28.70
2019-04-10T00:59:34.486Z,29.87
2019-04-10T01:04:29.115Z,28.90
2019-04-10T01:09:23.765Z,28.57
2019-04-10T01:14:18.446Z,28.87
2019-04-10T01:19:13.159Z,29.73
2019-04-10T01:24:08.860Z,28.07
2019-04-10T01:29:05.040Z,27.47
2019-04-10T01:34:00.973Z,26.97
2019-04-10T01:38:55.978Z,28.73
2019-04-10T01:43:51.112Z,27.87
2019-04-10T01:48:46.135Z,27.13
2019-04-10T01:53:41.902Z,28.00
2019-04-10T01:58:37.465Z,28.40
2019-04-10T02:03:32.154Z,27.07
2019-04-10T02:08:26.818Z,28.03
2019-04-10T02:13:21.503Z,27.47
2019-04-10T02:18:17.025Z,28.50
2019-04-10T02:23:12.212Z,27.03
2019-04-10T02:28:07.058Z,28.43
2019-04-10T02:33:02.306Z,28.83
2019-04-10T02:38:00.522Z,28.77
2019-04-10T02:42:54.672Z,27.97
2019-04-10T02:47:50.956Z,27.87
2019-04-10T02:52:46.578Z,28.87
2019-04-10T02:57:43.691Z,29.93
2019-04-10T03:02:41.031Z,28.93
2019-04-10T03:07:35.904Z,28.83
2019-04-10T03:12:32.168Z,28.67
2019-04-10T03:17:28.105Z,28.97
2019-04-10T03:22:23.009Z,29.03
2019-04-10T03:27:19.068Z,29.37
2019-04-10T03:32:35.421Z,28.90
2019-04-10T03:37:26.777Z,28.20
2019-04-10T03:42:21.406Z,27.50
2019-04-10T03:47:16.044Z,28.87
2019-04-10T03:52:11.457Z,29.53
2019-04-10T03:57:06.658Z,28.60
2019-04-10T04:02:01.384Z,28.73
2019-04-10T04:06:56.033Z,28.60
2019-04-10T04:11:50.662Z,29.40
2019-04-10T04:16:45.303Z,29.00
2019-04-10T04:21:40.000Z,28.93
2019-04-10T04:26:35.052Z,29.27
2019-04-10T04:31:29.723Z,29.00
2019-04-10T04:36:24.633Z,29.57
2019-04-10T04:41:19.629Z,30.93
2019-04-10T04:46:14.317Z,30.13
2019-04-10T04:51:09.064Z,32.40
2019-04-10T04:56:03.908Z,30.80
2019-04-10T05:00:58.637Z,30.60
2019-04-10T05:05:53.981Z,30.20
2019-04-10T05:10:49.695Z,29.57
2019-04-10T05:15:44.964Z,31.10
2019-04-10T05:20:46.721Z,31.43
2019-04-10T05:25:36.177Z,30.77
2019-04-10T05:30:31.401Z,31.87
2019-04-10T05:35:26.225Z,30.87
2019-04-10T05:40:20.837Z,32.40
2019-04-10T05:45:15.609Z,32.67
2019-04-10T05:50:16.114Z,30.73
2019-04-10T05:55:12.223Z,31.67
2019-04-10T06:00:14.832Z,30.97
2019-04-10T06:05:09.855Z,31.40
2019-04-10T06:10:09.924Z,30.97
2019-04-10T06:15:04.678Z,32.87
2019-04-10T06:19:59.328Z,32.77
2019-04-10T06:24:54.648Z,32.77
2019-04-10T06:29:49.418Z,31.83
2019-04-10T06:34:44.136Z,31.33
2019-04-10T06:39:38.832Z,31.67
2019-04-10T06:44:34.242Z,31.93
2019-04-10T06:49:29.206Z,29.33
2019-04-10T06:54:24.708Z,28.27
2019-04-10T06:59:19.432Z,28.20
2019-04-10T07:04:14.270Z,29.17
2019-04-10T07:09:11.739Z,29.77
2019-04-10T07:14:10.310Z,30.30
2019-04-10T07:19:06.012Z,29.70
2019-04-10T07:24:04.969Z,31.07
2019-04-10T07:28:58.913Z,29.33
2019-04-10T07:33:54.855Z,29.73
2019-04-10T07:38:53.880Z,28.93
2019-04-10T07:43:48.434Z,26.80
2019-04-10T07:48:46.480Z,28.67
2019-04-10T07:53:45.186Z,29.53
2019-04-10T07:58:41.859Z,30.33
2019-04-10T08:03:38.197Z,29.83
2019-04-10T08:08:36.177Z,27.50
2019-04-10T08:13:31.288Z,25.47
2019-04-10T08:18:27.560Z,27.77
2019-04-10T08:23:25.968Z,26.40
2019-04-10T08:28:22.019Z,27.10
2019-04-10T08:33:19.846Z,29.00
2019-04-10T08:38:15.250Z,28.20
2019-04-10T08:43:11.776Z,27.13
2019-04-10T08:48:07.934Z,25.37
2019-04-10T08:53:02.646Z,25.40
2019-04-10T08:57:58.550Z,26.53
2019-04-10T09:02:53.347Z,25.03
2019-04-10T09:07:48.550Z,28.87
2019-04-10T09:12:43.734Z,28.40
2019-04-10T09:17:39.677Z,28.50
2019-04-10T09:22:57.222Z,30.73
2019-04-10T09:27:32.435Z,30.67
2019-04-10T09:32:28.649Z,29.60
2019-04-10T09:37:24.342Z,29.80
2019-04-10T09:42:24.068Z,28.50
2019-04-10T09:47:18.764Z,26.70
2019-04-10T09:52:19.515Z,25.80
2019-04-10T09:57:15.403Z,26.13
2019-04-10T10:02:20.425Z,27.40
2019-04-10T10:07:20.711Z,30.83
2019-04-10T10:12:15.832Z,29.27
2019-04-10T10:17:10.735Z,31.23
2019-04-10T10:22:06.151Z,28.23
2019-04-10T10:27:02.202Z,30.83
2019-04-10T10:31:57.278Z,29.30
2019-04-10T10:36:53.231Z,29.77
2019-04-10T10:41:48.989Z,28.53
2019-04-10T10:46:44.025Z,29.37
2019-04-10T10:51:46.755Z,32.20
2019-04-10T10:56:42.615Z,32.90
2019-04-10T11:01:38.036Z,31.87
2019-04-10T11:06:33.154Z,32.37
2019-04-10T11:11:28.260Z,29.63
2019-04-10T11:16:23.327Z,32.20
2019-04-10T11:21:27.822Z,28.03
2019-04-10T11:26:24.227Z,25.17
2019-04-10T11:31:19.232Z,23.47
2019-04-10T11:36:15.125Z,23.30
2019-04-10T11:41:10.167Z,26.53
2019-04-10T11:46:05.334Z,29.57
2019-04-10T11:51:01.137Z,33.43
2019-04-10T11:56:05.667Z,34.33
2019-04-10T12:01:08.263Z,35.67
2019-04-10T12:05:59.831Z,34.07
2019-04-10T12:16:00.990Z,34.73
2019-04-10T12:21:01.914Z,36.23
2019-04-10T12:26:03.279Z,34.13
2019-04-10T12:31:05.684Z,35.67
2019-04-10T12:36:06.580Z,36.30
2019-04-10T12:41:08.880Z,35.47
2019-04-10T12:46:07.267Z,37.23
2019-04-10T12:51:07.691Z,38.83
2019-04-10T12:56:10.164Z,38.73
2019-04-10T13:01:10.590Z,37.73
2019-04-10T13:06:12.340Z,37.33
2019-04-10T13:11:12.028Z,38.37
2019-04-10T13:16:07.820Z,38.63
2019-04-10T13:21:02.520Z,38.23
2019-04-10T13:26:00.990Z,37.87
2019-04-10T13:30:55.548Z,39.30
2019-04-10T13:35:51.167Z,37.20
2019-04-10T13:40:46.012Z,38.53
2019-04-10T13:45:41.586Z,36.63
2019-04-10T13:50:36.953Z,38.33
2019-04-10T13:55:32.692Z,38.00
2019-04-10T14:00:33.619Z,38.20
2019-04-10T14:05:31.908Z,38.27
2019-04-10T14:10:25.083Z,39.70
2019-04-10T14:15:20.239Z,40.37
2019-04-10T14:20:20.193Z,41.17
2019-04-10T14:25:23.027Z,42.40
2019-04-10T14:30:20.969Z,42.67
2019-04-10T14:35:16.807Z,44.17
2019-04-10T14:40:12.285Z,43.73
2019-04-10T14:45:09.156Z,44.23
2019-04-10T14:50:05.266Z,43.60
2019-04-10T14:55:00.114Z,45.77
2019-04-10T14:59:55.959Z,43.93
2019-04-10T15:04:51.267Z,43.60
2019-04-10T15:09:46.467Z,44.63
2019-04-10T15:14:41.178Z,43.27
2019-04-10T15:19:36.406Z,44.47
2019-04-10T15:24:31.263Z,43.77
2019-04-10T15:29:26.030Z,45.43
2019-04-10T15:34:20.671Z,46.07
2019-04-10T15:39:15.451Z,46.90
2019-04-10T15:44:10.236Z,47.73
2019-04-10T15:49:09.129Z,48.07
2019-04-10T15:54:04.139Z,49.10
2019-04-10T15:58:59.697Z,49.03
2019-04-10T16:03:54.688Z,49.10
2019-04-10T16:08:50.360Z,50.93
2019-04-10T16:13:47.028Z,50.83
2019-04-10T16:18:42.495Z,52.83
2019-04-10T16:23:42.155Z,52.03
2019-04-10T16:28:37.579Z,52.33
2019-04-10T16:33:32.226Z,52.87
2019-04-10T16:38:27.036Z,51.27
2019-04-10T16:43:22.339Z,53.03
2019-04-10T16:48:18.822Z,52.27
2019-04-10T16:53:13.873Z,52.57
2019-04-10T16:58:09.598Z,54.57
2019-04-10T17:03:05.573Z,51.83
2019-04-10T17:08:00.357Z,55.33
2019-04-10T17:12:55.052Z,57.70
2019-04-10T17:17:50.610Z,57.53
2019-04-10T17:22:48.558Z,60.43
2019-04-10T17:27:41.963Z,61.63
2019-04-10T17:32:38.461Z,62.40
2019-04-10T17:37:33.881Z,63.10
2019-04-10T17:42:28.649Z,64.97
2019-04-10T17:47:23.488Z,63.50
2019-04-10T17:52:18.732Z,66.10
2019-04-10T17:57:14.619Z,62.83
2019-04-10T18:02:11.874Z,66.83
2019-04-10T18:07:06.689Z,67.53
2019-04-10T18:12:01.894Z,67.50
2019-04-10T18:16:56.610Z,69.83
2019-04-10T18:21:51.642Z,69.73
2019-04-10T18:26:46.275Z,68.50
2019-04-10T18:31:41.127Z,63.97
2019-04-10T18:36:36.327Z,66.97
2019-04-10T18:41:31.837Z,70.37
2019-04-10T18:46:27.055Z,74.60
2019-04-10T18:51:22.084Z,70.57
2019-04-10T18:56:16.800Z,69.30
2019-04-10T19:01:18.931Z,68.43
2019-04-10T19:06:21.039Z,73.23
2019-04-10T19:11:22.770Z,71.60
2019-04-10T19:16:13.139Z,71.67
2019-04-10T19:21:07.881Z,70.30
2019-04-10T19:26:03.132Z,70.63
2019-04-10T19:31:11.046Z,69.07
2019-04-10T19:35:59.453Z,74.00
2019-04-10T19:40:54.319Z,72.30
2019-04-10T19:45:50.031Z,71.90
2019-04-10T19:50:45.642Z,73.73
2019-04-10T19:55:40.304Z,70.33
2019-04-10T20:00:37.035Z,70.93
2019-04-10T20:05:31.681Z,66.13
2019-04-10T20:10:27.608Z,62.63
2019-04-10T20:15:22.694Z,60.80
2019-04-10T20:20:17.402Z,59.67
2019-04-10T20:25:12.466Z,58.97
2019-04-10T20:30:09.783Z,60.80
2019-04-10T20:35:06.091Z,58.43
2019-04-10T20:40:01.296Z,54.33
2019-04-10T20:44:56.743Z,51.97
2019-04-10T20:49:51.703Z,56.10
2019-04-10T20:54:46.866Z,52.87
2019-04-10T20:59:42.516Z,50.30
2019-04-10T21:04:37.474Z,52.57
2019-04-10T21:09:32.195Z,52.60
2019-04-10T21:14:27.570Z,50.47
2019-04-10T21:19:22.669Z,51.77
2019-04-10T21:24:17.283Z,49.67
2019-04-10T21:29:16.350Z,48.33
2019-04-10T21:34:15.765Z,47.33
2019-04-10T21:39:11.064Z,47.27
2019-04-10T21:44:06.967Z,47.93
2019-04-10T21:49:01.661Z,48.63
2019-04-10T21:53:56.307Z,48.17
2019-04-10T21:58:50.964Z,46.50
2019-04-10T22:03:45.647Z,43.83
2019-04-10T22:08:48.094Z,46.43
2019-04-10T22:13:42.838Z,44.50
2019-04-10T22:18:37.469Z,45.47
2019-04-10T22:23:32.227Z,47.33
2019-04-10T22:28:26.864Z,44.30
2019-04-10T22:33:22.256Z,47.57
2019-04-10T22:38:17.399Z,44.93
2019-04-10T22:43:12.282Z,45.83
2019-04-10T22:48:08.249Z,44.70
2019-04-10T22:53:03.115Z,44.60
2019-04-10T22:57:57.845Z,43.93
2019-04-10T23:02:52.829Z,45.90
2019-04-10T23:07:47.785Z,47.27
2019-04-10T23:12:52.218Z,46.70
2019-04-10T23:17:39.049Z,43.73
2019-04-10T23:22:33.719Z,45.50
2019-04-10T23:27:28.496Z,45.43
2019-04-10T23:32:23.544Z,44.30
2019-04-10T23:37:18.479Z,45.43
2019-04-10T23:42:13.105Z,42.57
2019-04-10T23:47:07.818Z,44.43
2019-04-10T23:52:03.325Z,43.70
2019-04-10T23:56:58.253Z,44.43
